CYLU

Kangiqsualujjuaq (Georges River) Airport

Kangiqsualujjuaq, Quebec, Canada
METAR CYLU 231900Z 31018G24KT 13SM BKN012 OVC019 02/M01 A2956 RMK ST5SC3 LAST STFD OBS/NEXT 241200UTC SLP017
Observed Flight Rules
Sep-23 @ 19:00 UTC (9 hours ago) Marginal Visual Flight Rules
Wind Visibility Clouds
310° at 18 knots
 Gusting to 24 knots
13 miles
  • Broken at 1,200' AGL
  • Overcast at 1,900' AGL
Temperatures Readings
Current 2°C / 36°F
Dewpoint -1°C / 30°F
Humidity 81%
Altimeter 29.56" Hg
Pressure 1001.7 hPa
Elevation 60
METAR CYLU 231900Z 31018G24KT 13SM BKN012 OVC019 02/M01 A2956 RMK ST5SC3 LAST STFD OBS/NEXT 241200UTC SLP017
Observed Flight Rules
Sep-23 @ 19:00 UTC
(9 hours ago)
MVFR
Wind Visibility
310° at 18 knots
 Gusting to 24 knots
13 miles
Clouds
  • Broken at 1,200' AGL
  • Overcast at 1,900' AGL
Temperature Dewpoint
2°C / 36°F -1°C / 30°F
Humidity Altimeter Pressure
81% 29.56" Hg 1001.7 hPa